Time;durP1;ratioP1;P1;durP2;ratioP2;P2;SDS_P1;SDS_P2;PMS_P1;PMS_P2;Temp;Humidity;BMP_temperature;BMP_pressure;BME280_temperature;BME280_humidity;BME280_pressure;Samples;Min_cycle;Max_cycle;Signal;HPM_P1;HPM_P2
2022/06/13 00:02:23;;;;;;;4.25;0.90;;;15.20;67.70;;;;;;4790864;29;20126;-83
2022/06/13 00:04:50;;;;;;;1.70;0.52;;;15.20;67.80;;;;;;4773411;29;20051;-83
2022/06/13 00:07:17;;;;;;;5.80;1.00;;;15.20;68.00;;;;;;4788879;29;20051;-86
2022/06/13 00:09:44;;;;;;;3.55;0.60;;;15.20;68.10;;;;;;4791135;29;20079;-86
2022/06/13 00:12:11;;;;;;;2.22;0.57;;;15.10;68.30;;;;;;4774334;29;20158;-86
2022/06/13 00:14:39;;;;;;;2.38;0.68;;;15.10;68.50;;;;;;4790050;29;20124;-85
2022/06/13 00:17:06;;;;;;;5.10;0.70;;;15.10;68.60;;;;;;4790018;29;20564;-85
2022/06/13 00:19:33;;;;;;;2.75;0.70;;;15.10;68.80;;;;;;4788118;29;20116;-85
2022/06/13 00:22:00;;;;;;;3.67;1.02;;;15.10;68.90;;;;;;4794724;29;20075;-85
2022/06/13 00:24:28;;;;;;;1.63;0.65;;;15.00;68.90;;;;;;4789378;29;20043;-85
2022/06/13 00:26:55;;;;;;;2.20;0.68;;;15.00;69.00;;;;;;4794724;29;20508;-85
2022/06/13 00:29:22;;;;;;;1.77;0.60;;;15.00;69.10;;;;;;4774556;30;20059;-85
2022/06/13 00:31:49;;;;;;;2.60;0.60;;;14.90;69.20;;;;;;4806597;29;20454;-85
2022/06/13 00:34:16;;;;;;;2.63;0.80;;;14.80;69.40;;;;;;4794505;29;20051;-86
2022/06/13 00:36:46;;;;;;;2.78;0.77;;;14.80;69.50;;;;;;4791608;29;20583;-86
2022/06/13 00:39:13;;;;;;;3.17;0.60;;;14.80;69.70;;;;;;4774200;30;20047;-86
2022/06/13 00:41:42;;;;;;;3.78;1.17;;;14.80;69.90;;;;;;4804105;29;20047;-85
2022/06/13 00:44:25;;;;;;;3.83;0.98;;;14.70;69.90;;;;;;4789245;29;20089;-86
2022/06/13 00:46:53;;;;;;;2.92;0.60;;;14.70;70.10;;;;;;4803570;29;20059;-87
2022/06/13 00:49:28;;;;;;;2.85;0.85;;;14.70;70.20;;;;;;4789096;30;20468;-86
2022/06/13 00:52:05;;;;;;;2.78;0.80;;;14.70;70.50;;;;;;4801809;29;20062;-85
2022/06/13 00:54:36;;;;;;;4.13;0.88;;;14.70;70.60;;;;;;4790893;29;20056;-83
2022/06/13 00:57:05;;;;;;;3.67;0.82;;;14.70;70.60;;;;;;4788347;29;20062;-83
2022/06/13 00:59:36;;;;;;;4.55;0.70;;;14.80;70.70;;;;;;4787775;29;20067;-84
2022/06/13 01:02:04;;;;;;;3.92;0.60;;;14.80;70.70;;;;;;4789598;29;20060;-83
2022/06/13 01:04:31;;;;;;;1.60;0.52;;;14.80;70.70;;;;;;4787543;29;20112;-83
2022/06/13 01:07:00;;;;;;;3.42;0.70;;;14.90;70.70;;;;;;4788120;30;20051;-82
2022/06/13 01:12:17;;;;;;;2.33;0.80;;;15.00;70.70;;;;;;4798896;29;20418;-83
2022/06/13 01:15:06;;;;;;;3.15;0.80;;;15.10;70.60;;;;;;4807015;29;20082;-83
2022/06/13 01:17:34;;;;;;;2.88;0.70;;;15.10;70.70;;;;;;4799530;29;20108;-83
2022/06/13 01:20:26;;;;;;;2.55;0.80;;;15.20;70.70;;;;;;4802436;29;20052;-83
2022/06/13 01:23:11;;;;;;;2.70;0.52;;;15.20;70.70;;;;;;4791972;29;20058;-84
2022/06/13 01:26:14;;;;;;;1.67;0.55;;;15.30;70.80;;;;;;4799099;29;20043;-84
2022/06/13 01:29:07;;;;;;;3.13;0.50;;;15.30;70.80;;;;;;4772434;30;20051;-84
2022/06/13 01:32:13;;;;;;;2.55;0.60;;;15.30;70.60;;;;;;4802659;29;20055;-84
2022/06/13 01:34:46;;;;;;;4.72;0.90;;;15.40;70.70;;;;;;4780732;30;20499;-84
2022/06/13 01:37:38;;;;;;;3.28;0.85;;;15.40;70.70;;;;;;4793251;29;20058;-84
2022/06/13 01:40:14;;;;;;;3.78;0.70;;;15.50;70.70;;;;;;4802275;29;20104;-84
2022/06/13 01:43:15;;;;;;;4.85;0.90;;;15.50;70.70;;;;;;4793621;29;20154;-84
2022/06/13 01:46:01;;;;;;;3.10;0.80;;;15.60;70.70;;;;;;4799644;29;20065;-83
2022/06/13 01:48:49;;;;;;;3.17;0.75;;;15.60;70.80;;;;;;4784745;29;20104;-84
2022/06/13 01:51:35;;;;;;;2.60;0.75;;;15.60;70.80;;;;;;4787004;29;20142;-83
2022/06/13 01:54:02;;;;;;;1.55;0.50;;;15.70;70.80;;;;;;4791326;29;20055;-83
2022/06/13 01:56:53;;;;;;;3.75;0.70;;;15.70;70.90;;;;;;4801952;29;20066;-83
2022/06/13 01:59:39;;;;;;;4.05;0.80;;;15.70;71.10;;;;;;4786680;29;20089;-83
2022/06/13 02:02:16;;;;;;;6.32;1.02;;;15.70;71.10;;;;;;4805832;29;20131;-83
2022/06/13 02:05:24;;;;;;;3.45;0.93;;;15.70;71.20;;;;;;4786509;29;20051;-82
2022/06/13 02:08:27;;;;;;;2.42;0.77;;;15.80;71.20;;;;;;4767765;30;20104;-83
2022/06/13 02:11:10;;;;;;;2.90;0.68;;;15.80;71.30;;;;;;4790554;29;20054;-83
2022/06/13 02:14:21;;;;;;;4.97;0.90;;;15.80;71.40;;;;;;4801600;29;20510;-83
2022/06/13 02:17:05;;;;;;;6.07;1.00;;;15.80;72.00;;;;;;4801381;29;20054;-83
2022/06/13 02:19:42;;;;;;;2.63;0.80;;;15.80;71.40;;;;;;4785317;29;20047;-83
2022/06/13 02:22:32;;;;;;;3.92;1.05;;;15.90;71.60;;;;;;4790227;29;20055;-83
2022/06/13 02:25:10;;;;;;;4.25;1.00;;;15.90;71.60;;;;;;4764476;30;20047;-83
2022/06/13 02:27:38;;;;;;;3.20;0.80;;;15.90;71.60;;;;;;4771254;29;20047;-83
2022/06/13 02:30:15;;;;;;;4.82;1.30;;;15.90;71.70;;;;;;4786829;29;20100;-83
2022/06/13 02:32:48;;;;;;;2.78;0.82;;;15.90;71.80;;;;;;4786748;29;20071;-83
2022/06/13 02:35:46;;;;;;;2.67;1.33;;;15.90;71.90;;;;;;4786661;29;20063;-83
2022/06/13 02:38:19;;;;;;;2.65;0.90;;;15.90;72.00;;;;;;4793090;29;20544;-84
2022/06/13 02:41:06;;;;;;;5.95;1.17;;;15.90;72.20;;;;;;4785727;29;20059;-86
2022/06/13 02:43:56;;;;;;;3.08;0.75;;;15.90;72.30;;;;;;4789429;29;20521;-86
2022/06/13 02:46:30;;;;;;;3.13;0.93;;;15.90;72.50;;;;;;4786641;29;20581;-82
2022/06/13 02:49:05;;;;;;;2.70;0.70;;;15.80;72.60;;;;;;4802261;29;20493;-83
2022/06/13 02:52:09;;;;;;;2.25;0.88;;;15.80;72.70;;;;;;4805229;29;20051;-84
2022/06/13 02:54:45;;;;;;;3.70;1.17;;;15.80;72.80;;;;;;4787474;29;20078;-84
2022/06/13 02:57:36;;;;;;;3.30;0.80;;;15.80;72.90;;;;;;4791791;29;20052;-83
2022/06/13 03:00:21;;;;;;;2.80;0.98;;;15.80;73.00;;;;;;4782779;29;20067;-82
2022/06/13 03:03:04;;;;;;;1.60;0.60;;;15.70;73.10;;;;;;4800900;29;20055;-82
2022/06/13 03:05:49;;;;;;;1.70;0.70;;;15.70;73.30;;;;;;4801056;29;20499;-83
2022/06/13 03:08:35;;;;;;;3.17;0.90;;;15.60;73.30;;;;;;4786659;29;20052;-82
2022/06/13 03:11:36;;;;;;;2.35;0.70;;;15.60;73.50;;;;;;4805221;29;20066;-83
2022/06/13 03:14:41;;;;;;;4.65;0.93;;;15.60;73.60;;;;;;4816041;29;20414;-83
2022/06/13 03:17:18;;;;;;;2.88;0.90;;;15.50;73.70;;;;;;4804623;29;20537;-83
2022/06/13 03:20:23;;;;;;;3.15;0.90;;;15.40;73.80;;;;;;4795898;29;20055;-83
2022/06/13 03:23:03;;;;;;;3.47;0.57;;;15.40;73.90;;;;;;4771915;29;20058;-83
2022/06/13 03:25:52;;;;;;;3.65;1.00;;;15.40;74.00;;;;;;4806443;29;20505;-83
2022/06/13 03:28:48;;;;;;;2.95;0.80;;;15.30;74.00;;;;;;4801124;29;20052;-83
2022/06/13 03:31:21;;;;;;;2.38;0.90;;;15.30;74.10;;;;;;4754888;30;20055;-82
2022/06/13 03:33:53;;;;;;;2.08;0.90;;;15.30;74.10;;;;;;4785862;29;20501;-82
2022/06/13 03:36:37;;;;;;;4.03;1.10;;;15.40;74.10;;;;;;4786009;29;20365;-83
2022/06/13 03:39:25;;;;;;;3.90;1.00;;;15.40;74.00;;;;;;4785629;30;20067;-82
2022/06/13 03:42:02;;;;;;;3.70;1.05;;;15.40;73.90;;;;;;4794820;29;20043;-83
2022/06/13 03:44:44;;;;;;;3.30;1.20;;;15.40;74.00;;;;;;4807876;29;20050;-86
2022/06/13 03:47:19;;;;;;;5.25;1.17;;;15.50;74.00;;;;;;4799617;29;20059;-86
2022/06/13 03:49:56;;;;;;;4.97;1.13;;;15.50;74.20;;;;;;4771525;30;20059;-86
2022/06/13 03:52:27;;;;;;;3.00;1.10;;;15.50;74.00;;;;;;4793519;29;20059;-86
2022/06/13 03:55:12;;;;;;;2.63;0.95;;;15.50;74.00;;;;;;4786425;29;20108;-86
2022/06/13 03:57:48;;;;;;;4.53;1.50;;;15.60;74.00;;;;;;4809850;29;20054;-87
2022/06/13 04:00:22;;;;;;;4.00;1.20;;;15.60;74.10;;;;;;4803284;29;20257;-85
2022/06/13 04:02:52;;;;;;;4.72;1.20;;;15.60;74.00;;;;;;4771423;30;20105;-87
2022/06/13 04:05:29;;;;;;;3.53;1.20;;;15.60;74.00;;;;;;4801144;29;20047;-85
2022/06/13 04:07:58;;;;;;;6.05;1.45;;;15.60;74.10;;;;;;4803689;29;20055;-86
2022/06/13 04:10:26;;;;;;;5.35;1.80;;;15.60;74.10;;;;;;4776890;29;20112;-85
2022/06/13 04:13:35;;;;;;;6.03;1.70;;;15.60;74.20;;;;;;4791942;29;20062;-86
2022/06/13 04:16:31;;;;;;;6.20;1.40;;;15.60;74.20;;;;;;4774430;29;20063;-86
2022/06/13 04:19:24;;;;;;;5.28;1.55;;;15.70;74.20;;;;;;4766801;30;20056;-85
2022/06/13 04:22:06;;;;;;;5.30;1.67;;;15.70;74.20;;;;;;4776285;29;20079;-86
2022/06/13 04:24:51;;;;;;;6.05;1.70;;;15.70;74.20;;;;;;4804633;29;20516;-86
2022/06/13 04:27:25;;;;;;;5.75;1.80;;;15.70;74.30;;;;;;4789273;29;20055;-87
2022/06/13 04:30:09;;;;;;;5.82;1.90;;;15.70;74.30;;;;;;4788926;29;20059;-85
2022/06/13 04:32:55;;;;;;;8.10;2.05;;;15.70;74.40;;;;;;4808040;29;20050;-86
2022/06/13 04:35:23;;;;;;;5.70;1.65;;;15.60;74.30;;;;;;4806364;29;20142;-86
2022/06/13 04:37:51;;;;;;;5.28;1.85;;;15.60;74.40;;;;;;4788689;29;20047;-85
2022/06/13 04:40:25;;;;;;;3.45;1.50;;;15.70;74.50;;;;;;4789276;29;20448;-86
2022/06/13 04:42:54;;;;;;;6.00;2.38;;;15.70;74.50;;;;;;4788836;29;20047;-85
2022/06/13 04:45:25;;;;;;;8.00;2.50;;;15.70;75.50;;;;;;4789270;29;20441;-86
2022/06/13 04:47:55;;;;;;;7.18;2.10;;;15.60;74.90;;;;;;4789323;29;20083;-86
2022/06/13 04:50:39;;;;;;;5.22;2.35;;;15.70;75.00;;;;;;4791495;29;20527;-86
2022/06/13 04:53:18;;;;;;;4.93;2.17;;;15.70;74.90;;;;;;4797635;29;20487;-86
2022/06/13 04:55:48;;;;;;;5.47;1.67;;;15.80;74.80;;;;;;4789024;29;20112;-85
2022/06/13 04:58:19;;;;;;;3.85;1.40;;;15.80;74.70;;;;;;4807583;29;20055;-85
2022/06/13 05:00:52;;;;;;;6.75;2.17;;;15.90;74.80;;;;;;4792531;29;20047;-86
2022/06/13 05:03:23;;;;;;;6.72;2.15;;;15.90;74.80;;;;;;4803818;29;20056;-86
2022/06/13 05:05:54;;;;;;;8.32;2.75;;;15.90;75.10;;;;;;4773854;29;20595;-85
2022/06/13 05:08:30;;;;;;;8.18;3.03;;;15.90;75.10;;;;;;4787279;29;20059;-85
2022/06/13 05:11:12;;;;;;;7.90;2.67;;;15.90;75.10;;;;;;4788213;29;20078;-85
2022/06/13 05:13:39;;;;;;;6.38;2.33;;;15.90;75.00;;;;;;4807207;29;20062;-82
2022/06/13 05:16:20;;;;;;;5.57;2.08;;;16.00;75.00;;;;;;4806063;29;20050;-82
2022/06/13 05:19:21;;;;;;;7.15;2.85;;;16.00;75.10;;;;;;4805592;29;20066;-83
2022/06/13 05:22:00;;;;;;;7.78;2.40;;;16.00;75.30;;;;;;4787820;29;20055;-83
2022/06/13 05:24:38;;;;;;;7.10;2.38;;;16.00;75.20;;;;;;4800556;29;20130;-83
2022/06/13 05:27:08;;;;;;;5.53;1.80;;;16.10;75.30;;;;;;4787981;29;20055;-84
2022/06/13 05:29:35;;;;;;;9.38;2.65;;;16.20;75.30;;;;;;4787658;29;20134;-82
2022/06/13 05:32:06;;;;;;;6.28;1.85;;;16.30;75.20;;;;;;4776536;29;20147;-83
2022/06/13 05:34:37;;;;;;;5.20;2.17;;;16.50;74.90;;;;;;4787241;29;20059;-82
2022/06/13 05:37:04;;;;;;;7.75;2.47;;;16.60;74.80;;;;;;4789035;29;20108;-82
2022/06/13 05:39:36;;;;;;;5.57;1.88;;;16.60;74.70;;;;;;4771497;30;20124;-82
2022/06/13 05:42:04;;;;;;;10.50;2.90;;;16.60;74.60;;;;;;4771127;30;20044;-82
2022/06/13 05:44:31;;;;;;;5.28;1.58;;;16.70;74.70;;;;;;4801727;29;20047;-84
2022/06/13 05:46:58;;;;;;;6.57;1.95;;;16.70;74.60;;;;;;4776568;29;20047;-83
2022/06/13 05:49:25;;;;;;;5.63;2.08;;;16.70;74.60;;;;;;4772278;30;20541;-82
2022/06/13 05:51:52;;;;;;;5.43;1.85;;;16.80;74.60;;;;;;4799687;29;20057;-82
2022/06/13 05:54:20;;;;;;;3.70;1.65;;;16.80;74.40;;;;;;4807245;29;20059;-82
2022/06/13 05:56:47;;;;;;;4.30;1.52;;;16.90;74.30;;;;;;4774467;29;20125;-82
2022/06/13 05:59:14;;;;;;;6.50;1.55;;;16.90;74.10;;;;;;4771916;30;20478;-83
2022/06/13 06:01:41;;;;;;;5.22;2.08;;;17.00;74.10;;;;;;4786218;29;20067;-83
2022/06/13 06:04:08;;;;;;;4.65;1.65;;;17.00;74.10;;;;;;4787030;29;20403;-82
2022/06/13 06:06:36;;;;;;;5.10;1.98;;;17.00;73.90;;;;;;4785772;29;20064;-81
2022/06/13 06:09:05;;;;;;;6.03;2.33;;;17.00;73.80;;;;;;4787703;29;20062;-82
2022/06/13 06:11:33;;;;;;;9.93;2.28;;;17.00;73.70;;;;;;4806592;29;20468;-82
2022/06/13 06:14:00;;;;;;;4.60;1.50;;;17.00;73.80;;;;;;4792165;29;20058;-82
2022/06/13 06:16:30;;;;;;;3.75;1.33;;;17.00;74.30;;;;;;4785493;29;20548;-82
2022/06/13 06:18:57;;;;;;;5.05;1.05;;;17.00;73.50;;;;;;4784343;29;20051;-82
2022/06/13 06:21:25;;;;;;;3.22;1.20;;;17.10;73.40;;;;;;4799490;29;20569;-82
2022/06/13 06:23:52;;;;;;;6.32;2.00;;;17.20;73.10;;;;;;4787246;29;20047;-82
2022/06/13 06:26:23;;;;;;;4.10;1.50;;;17.30;72.60;;;;;;4784994;29;20071;-82
2022/06/13 06:28:51;;;;;;;4.65;1.00;;;17.50;72.30;;;;;;4771723;29;20058;-82
2022/06/13 06:31:23;;;;;;;4.03;0.80;;;17.70;71.80;;;;;;4785957;29;20061;-82
2022/06/13 06:33:51;;;;;;;3.85;1.27;;;17.90;71.30;;;;;;4771888;30;20082;-83
2022/06/13 06:36:21;;;;;;;4.95;1.65;;;18.00;70.60;;;;;;4788126;29;20051;-83
2022/06/13 06:38:48;;;;;;;4.22;1.10;;;17.90;70.30;;;;;;4783084;29;20537;-83
2022/06/13 06:41:15;;;;;;;2.97;1.08;;;17.90;70.20;;;;;;4785405;29;20066;-83
2022/06/13 06:43:42;;;;;;;5.18;1.25;;;17.90;70.00;;;;;;4771283;30;20040;-82
2022/06/13 06:46:11;;;;;;;3.80;1.05;;;17.80;69.50;;;;;;4785575;29;20073;-82
2022/06/13 06:48:38;;;;;;;4.40;1.15;;;17.90;69.50;;;;;;4770312;29;20039;-83
2022/06/13 06:51:10;;;;;;;3.28;1.30;;;17.90;69.20;;;;;;4792888;29;20382;-82
2022/06/13 07:02:00;;;;;;;3.38;0.90;;;18.10;68.60;;;;;;4806289;29;20039;-81
2022/06/13 07:04:27;;;;;;;4.93;0.93;;;18.10;68.50;;;;;;4790551;29;20086;-87
2022/06/13 07:06:54;;;;;;;1.95;0.77;;;18.10;68.20;;;;;;4787849;29;20093;-86
2022/06/13 07:09:21;;;;;;;5.38;1.00;;;18.20;68.10;;;;;;4787817;29;20059;-86
2022/06/13 07:11:54;;;;;;;4.90;0.90;;;18.30;67.60;;;;;;4786934;29;20058;-85
2022/06/13 07:14:26;;;;;;;3.42;0.90;;;18.40;67.00;;;;;;4795705;29;20063;-86
2022/06/13 07:16:57;;;;;;;4.32;0.77;;;18.50;66.80;;;;;;4800201;29;20577;-87
2022/06/13 07:19:25;;;;;;;3.35;0.70;;;18.50;66.30;;;;;;4798617;29;20051;-87
2022/06/13 07:21:53;;;;;;;4.45;0.80;;;18.60;66.30;;;;;;4787207;29;20145;-86
2022/06/13 07:24:21;;;;;;;3.55;0.85;;;18.80;66.10;;;;;;4786624;29;20055;-86
2022/06/13 07:26:49;;;;;;;3.60;1.15;;;18.80;65.40;;;;;;4797991;29;20108;-86
2022/06/13 07:29:17;;;;;;;4.20;0.90;;;18.80;65.30;;;;;;4786584;30;20154;-88
2022/06/13 07:31:54;;;;;;;4.10;0.93;;;18.70;65.30;;;;;;4754745;30;20062;-89
2022/06/13 07:34:24;;;;;;;2.72;0.63;;;18.70;65.30;;;;;;4754809;30;20058;-88
2022/06/13 07:36:54;;;;;;;3.33;0.50;;;18.70;65.30;;;;;;4767007;29;20075;-88
2022/06/13 07:39:21;;;;;;;3.05;0.80;;;18.60;65.20;;;;;;4802497;29;20057;-90
2022/06/13 07:41:49;;;;;;;4.13;0.70;;;18.60;65.40;;;;;;4771849;30;20134;-83
2022/06/13 07:44:23;;;;;;;6.15;1.30;;;18.50;65.10;;;;;;4801548;29;20070;-82
2022/06/13 07:46:51;;;;;;;5.22;0.88;;;18.50;64.90;;;;;;4775529;29;20051;-82
2022/06/13 07:49:18;;;;;;;3.83;0.85;;;18.60;64.90;;;;;;4804355;29;20487;-83
2022/06/13 07:51:46;;;;;;;4.22;0.80;;;18.80;64.40;;;;;;4802042;29;20051;-84
2022/06/13 07:54:17;;;;;;;3.78;0.98;;;18.90;63.20;;;;;;4800462;29;20146;-83
2022/06/13 07:56:44;;;;;;;3.90;0.90;;;19.00;62.60;;;;;;4789776;29;20055;-84
2022/06/13 07:59:18;;;;;;;2.88;0.90;;;18.90;61.80;;;;;;4774410;30;20090;-84
2022/06/13 08:01:46;;;;;;;2.92;0.75;;;18.90;61.80;;;;;;4790608;29;20051;-87
2022/06/13 08:04:13;;;;;;;3.13;0.52;;;19.00;61.90;;;;;;4790417;30;20054;-89
2022/06/13 08:06:42;;;;;;;3.58;0.70;;;19.20;62.00;;;;;;4801880;29;20444;-88
2022/06/13 08:09:11;;;;;;;3.10;0.80;;;19.40;61.10;;;;;;4789902;29;20066;-89
2022/06/13 08:11:44;;;;;;;1.38;0.50;;;19.50;60.20;;;;;;4789937;29;20066;-89
2022/06/13 08:14:12;;;;;;;1.70;0.45;;;19.50;59.90;;;;;;4792868;29;20138;-89
2022/06/13 08:16:39;;;;;;;1.70;0.40;;;19.50;59.90;;;;;;4790193;29;20047;-89
2022/06/13 08:19:07;;;;;;;2.10;0.40;;;19.70;59.90;;;;;;4790426;29;20051;-89
2022/06/13 08:21:37;;;;;;;3.63;0.45;;;19.80;59.00;;;;;;4789720;29;20051;-89
2022/06/13 08:24:06;;;;;;;3.08;0.50;;;19.70;58.40;;;;;;4775236;30;20043;-89
2022/06/13 08:26:40;;;;;;;2.13;0.50;;;19.60;58.20;;;;;;4789761;30;20055;-90
2022/06/13 08:29:08;;;;;;;2.08;0.50;;;19.50;58.10;;;;;;4777420;29;20071;-91
2022/06/13 08:31:39;;;;;;;1.25;0.50;;;19.40;58.50;;;;;;4793886;29;20058;-89
2022/06/13 08:34:09;;;;;;;2.67;0.50;;;19.20;58.90;;;;;;4807318;29;20059;-88
2022/06/13 08:36:36;;;;;;;3.20;0.63;;;19.30;59.20;;;;;;4805569;29;20139;-89
2022/06/13 08:39:03;;;;;;;2.60;0.60;;;19.30;58.90;;;;;;4805236;29;20055;-90
2022/06/13 08:41:37;;;;;;;3.97;0.60;;;19.40;58.70;;;;;;4786524;29;20058;-89
2022/06/13 08:44:12;;;;;;;2.47;0.52;;;19.60;58.70;;;;;;4822763;29;20058;-90
2022/06/13 08:46:58;;;;;;;2.05;0.45;;;19.90;58.00;;;;;;4793133;29;20094;-89
2022/06/13 08:50:00;;;;;;;1.25;0.30;;;20.00;57.40;;;;;;4790399;29;20112;-90
2022/06/13 08:52:40;;;;;;;5.15;0.63;;;19.90;56.90;;;;;;4790216;29;20062;-91
2022/06/13 08:55:35;;;;;;;2.67;0.30;;;19.60;57.20;;;;;;4790476;29;20055;-92
2022/06/13 08:58:20;;;;;;;2.58;0.40;;;19.50;57.70;;;;;;4805196;29;20169;-85
2022/06/13 09:01:01;;;;;;;3.35;0.60;;;19.30;57.90;;;;;;4777881;29;20460;-86
2022/06/13 09:03:35;;;;;;;2.85;0.40;;;18.90;58.20;;;;;;4788603;29;20529;-86
2022/06/13 09:06:14;;;;;;;1.50;0.30;;;18.90;58.80;;;;;;4788421;29;20055;-91
2022/06/13 09:08:57;;;;;;;0.77;0.25;;;19.10;58.50;;;;;;4792017;29;20112;-91
2022/06/13 09:11:47;;;;;;;2.95;0.50;;;19.40;58.10;;;;;;4789357;29;20104;-83
2022/06/13 09:14:23;;;;;;;1.60;0.40;;;19.80;57.60;;;;;;4791869;29;20047;-89
2022/06/13 09:17:05;;;;;;;0.95;0.20;;;19.90;57.00;;;;;;4785992;30;20079;-88
2022/06/13 09:19:54;;;;;;;1.58;0.30;;;20.10;56.80;;;;;;4793098;29;20482;-82
2022/06/13 09:22:28;;;;;;;0.93;0.20;;;20.20;55.70;;;;;;4792062;29;20046;-89
2022/06/13 09:25:10;;;;;;;1.40;0.30;;;20.30;54.10;;;;;;4812105;29;20043;-89
2022/06/13 09:27:54;;;;;;;1.38;0.30;;;20.40;53.80;;;;;;4788582;29;20078;-90
2022/06/13 09:30:26;;;;;;;5.70;0.38;;;20.70;54.00;;;;;;4796396;29;20047;-89
2022/06/13 09:33:00;;;;;;;2.63;0.20;;;20.80;53.80;;;;;;4777310;30;20047;-89
2022/06/13 09:35:46;;;;;;;3.03;0.50;;;20.70;54.30;;;;;;4797635;29;20043;-86
2022/06/13 09:38:22;;;;;;;1.23;0.30;;;20.70;54.60;;;;;;4788001;29;20511;-87
2022/06/13 09:40:55;;;;;;;1.45;0.40;;;20.80;54.50;;;;;;4803141;29;20066;-86
2022/06/13 09:43:42;;;;;;;3.17;0.93;;;21.00;54.10;;;;;;4787772;30;20047;-86
2022/06/13 09:46:14;;;;;;;1.67;0.22;;;21.20;54.20;;;;;;4803491;29;20047;-90
2022/06/13 09:49:18;;;;;;;4.07;0.30;;;21.20;53.90;;;;;;4795991;29;20066;-89
2022/06/13 09:51:56;;;;;;;2.85;0.20;;;21.10;53.90;;;;;;4773390;30;20054;-90
2022/06/13 09:54:38;;;;;;;2.33;0.40;;;20.80;53.90;;;;;;4788361;30;20116;-89
2022/06/13 09:57:43;;;;;;;2.20;0.60;;;20.30;54.00;;;;;;4788339;30;20078;-89
2022/06/13 10:00:38;;;;;;;2.10;0.30;;;20.10;54.60;;;;;;4800731;29;20150;-90
2022/06/13 10:03:24;;;;;;;2.63;0.55;;;20.20;54.20;;;;;;4788042;29;20051;-89
2022/06/13 10:05:59;;;;;;;1.45;0.30;;;20.20;54.00;;;;;;4787381;29;20043;-88
2022/06/13 10:08:29;;;;;;;3.05;0.40;;;20.40;54.00;;;;;;4798437;29;20053;-88
2022/06/13 10:11:41;;;;;;;2.13;0.40;;;20.70;53.50;;;;;;4785581;29;20407;-89
2022/06/13 10:14:27;;;;;;;2.03;0.43;;;20.70;53.00;;;;;;4788504;29;20043;-90
2022/06/13 10:17:29;;;;;;;1.98;0.30;;;20.60;53.40;;;;;;4788104;29;20067;-89
2022/06/13 10:20:03;;;;;;;1.83;0.28;;;20.50;53.40;;;;;;4787848;29;20051;-88
2022/06/13 10:22:45;;;;;;;1.98;0.28;;;20.20;53.90;;;;;;4788162;29;20043;-90
2022/06/13 10:29:43;;;;;;;0.98;0.30;;;20.10;53.10;;;;;;5107690;27;20396;-90
2022/06/13 10:32:22;;;;;;;1.85;0.38;;;20.30;53.10;;;;;;5076510;28;20177;-89
2022/06/13 10:35:20;;;;;;;2.10;0.30;;;20.40;53.20;;;;;;5070540;28;20045;-89
2022/06/13 10:37:53;;;;;;;1.63;0.25;;;20.30;53.30;;;;;;5054693;28;20492;-94
2022/06/13 10:40:21;;;;;;;3.03;0.50;;;20.10;53.30;;;;;;5054413;28;20045;-91
2022/06/13 10:42:48;;;;;;;2.15;0.28;;;19.80;53.70;;;;;;5054159;28;20469;-93
2022/06/13 10:45:23;;;;;;;2.25;0.43;;;19.70;53.60;;;;;;5075325;28;20114;-91
2022/06/13 10:48:12;;;;;;;0.93;0.30;;;19.60;53.50;;;;;;5047940;28;20414;-91
2022/06/13 10:51:03;;;;;;;3.30;0.57;;;19.80;53.10;;;;;;5049787;28;20490;-92
2022/06/13 10:53:54;;;;;;;5.00;0.40;;;20.10;52.40;;;;;;5050858;28;20053;-91
2022/06/13 10:56:38;;;;;;;3.22;0.63;;;20.50;51.90;;;;;;5049812;28;20565;-84
2022/06/13 10:59:05;;;;;;;2.03;0.40;;;20.80;51.30;;;;;;5055695;28;20044;-86
2022/06/13 11:01:53;;;;;;;2.45;0.40;;;20.70;51.50;;;;;;5049758;28;20430;-82
2022/06/13 11:04:20;;;;;;;1.60;0.30;;;20.50;51.30;;;;;;5049645;28;20040;-88
2022/06/13 11:06:57;;;;;;;1.58;0.20;;;20.30;51.70;;;;;;5070529;28;20037;-93
2022/06/13 11:09:38;;;;;;;2.42;0.25;;;20.40;51.70;;;;;;5043184;28;20041;-86
2022/06/13 11:12:28;;;;;;;2.30;0.30;;;20.60;51.60;;;;;;5049136;28;20045;-87
2022/06/13 11:24:33;;;;;;;3.50;0.40;;;21.60;48.40;;;;;;5076078;28;20086;-88
2022/06/13 11:30:20;;;;;;;1.58;0.20;;;21.00;50.00;;;;;;5076660;28;20132;-87
2022/06/13 11:33:25;;;;;;;1.40;0.20;;;20.90;50.40;;;;;;5090330;28;20082;-85
2022/06/13 11:39:39;;;;;;;1.15;0.20;;;20.80;50.00;;;;;;5076209;28;20054;-87
2022/06/13 11:42:20;;;;;;;1.65;0.32;;;21.20;49.30;;;;;;5045924;28;20056;-84
2022/06/13 11:45:01;;;;;;;2.55;0.32;;;21.30;48.80;;;;;;5032159;28;20047;-85
2022/06/13 11:47:50;;;;;;;1.25;0.20;;;21.40;48.10;;;;;;5038041;28;20040;-85
2022/06/13 11:50:24;;;;;;;1.73;0.32;;;21.50;46.70;;;;;;5065878;28;20510;-85
2022/06/13 11:55:52;;;;;;;1.35;0.50;;;22.10;46.70;;;;;;5042372;28;20033;-86
2022/06/13 11:58:34;;;;;;;2.25;0.35;;;22.60;45.90;;;;;;5051950;28;20116;-85
2022/06/13 12:01:23;;;;;;;1.35;0.20;;;22.60;45.90;;;;;;5037815;28;20045;-87
2022/06/13 12:05:01;;;;;;;0.70;0.15;;;22.40;46.40;;;;;;5040334;28;20069;-87
2022/06/13 12:08:31;;;;;;;1.50;0.20;;;22.50;45.50;;;;;;5058794;28;20484;-87
2022/06/13 12:12:11;;;;;;;2.08;0.30;;;22.30;44.40;;;;;;5035218;28;20048;-87
2022/06/13 12:18:25;;;;;;;2.20;0.40;;;23.30;43.80;;;;;;4947295;29;20047;-89
2022/06/13 12:25:56;;;;;;;1.63;0.20;;;24.30;42.60;;;;;;4983416;28;20065;-87
2022/06/13 12:28:58;;;;;;;0.75;0.17;;;23.80;43.30;;;;;;4966804;28;20121;-87
2022/06/13 12:35:17;;;;;;;2.03;0.20;;;24.70;41.40;;;;;;5011454;28;20149;-82
2022/06/13 12:38:23;;;;;;;2.08;0.28;;;25.50;40.80;;;;;;5020166;28;20065;-82
2022/06/13 12:41:16;;;;;;;0.40;0.10;;;26.00;39.90;;;;;;5001480;28;20446;-81
2022/06/13 12:44:26;;;;;;;0.70;0.17;;;24.90;40.40;;;;;;5034320;28;20052;-88
2022/06/13 12:47:36;;;;;;;1.05;0.20;;;25.00;41.20;;;;;;5011915;28;20226;-87
2022/06/13 12:50:48;;;;;;;1.25;0.30;;;25.70;39.90;;;;;;5030680;28;20038;-86
2022/06/13 12:53:35;;;;;;;1.55;0.13;;;26.00;39.40;;;;;;5021732;28;20053;-87
2022/06/13 12:56:22;;;;;;;2.00;0.38;;;27.00;39.10;;;;;;5036060;28;20088;-85
2022/06/13 12:59:29;;;;;;;2.17;0.20;;;26.60;39.00;;;;;;5057745;28;20056;-87
2022/06/13 13:19:44;;;;;;;1.88;0.30;;;26.90;38.50;;;;;;4960528;28;20047;-88
2022/06/13 13:23:53;;;;;;;1.85;0.22;;;25.40;38.10;;;;;;4930871;28;20467;-88
2022/06/13 13:27:21;;;;;;;1.98;0.20;;;24.40;39.90;;;;;;4940624;28;20139;-87
2022/06/13 13:30:26;;;;;;;1.17;0.20;;;25.30;39.00;;;;;;4904117;29;20098;-86
2022/06/13 13:33:23;;;;;;;2.88;0.40;;;24.50;39.40;;;;;;4925992;29;20062;-88
2022/06/13 13:36:26;;;;;;;1.65;0.22;;;23.70;40.40;;;;;;5014447;28;20628;-89
2022/06/13 13:39:03;;;;;;;1.88;0.38;;;23.10;41.40;;;;;;5005545;28;20136;-87
2022/06/13 13:41:45;;;;;;;1.77;0.43;;;22.90;41.30;;;;;;4987814;28;20529;-87
2022/06/13 13:45:08;;;;;;;2.72;0.30;;;23.80;40.60;;;;;;5031771;28;20056;-87
2022/06/13 13:48:44;;;;;;;1.08;0.20;;;24.90;39.20;;;;;;5042293;28;20048;-88
2022/06/13 13:51:55;;;;;;;1.10;0.20;;;24.20;39.40;;;;;;5019511;28;20049;-88
2022/06/13 13:54:45;;;;;;;2.55;0.40;;;24.50;39.30;;;;;;5036060;28;20380;-87
2022/06/13 13:57:16;;;;;;;2.03;0.40;;;25.10;39.00;;;;;;5024569;28;20075;-87
2022/06/13 14:00:29;;;;;;;0.90;0.20;;;25.60;38.70;;;;;;5041093;28;20131;-87
2022/06/13 14:03:20;;;;;;;1.65;0.30;;;25.70;38.30;;;;;;4992247;28;20135;-82
2022/06/13 14:06:06;;;;;;;1.88;0.30;;;25.50;38.70;;;;;;5033876;28;20113;-79
2022/06/13 14:08:43;;;;;;;2.05;0.30;;;26.40;38.20;;;;;;5015459;28;20049;-84
2022/06/13 14:11:19;;;;;;;3.47;0.40;;;26.10;38.00;;;;;;5015574;28;20045;-86
2022/06/13 14:14:07;;;;;;;2.80;0.25;;;25.00;38.50;;;;;;5036176;28;20044;-84
2022/06/13 14:16:56;;;;;;;3.92;0.50;;;24.50;39.70;;;;;;5051592;28;20051;-83
2022/06/13 14:19:33;;;;;;;2.25;0.32;;;24.40;39.80;;;;;;5044641;28;20045;-81
2022/06/13 14:22:13;;;;;;;1.52;0.20;;;23.80;40.50;;;;;;5024905;28;20065;-84
2022/06/13 14:25:03;;;;;;;0.63;0.13;;;24.70;40.50;;;;;;5038421;28;20144;-88
2022/06/13 14:27:32;;;;;;;1.35;0.28;;;25.20;39.60;;;;;;5061818;28;20113;-83
2022/06/13 14:33:02;;;;;;;2.28;0.40;;;24.20;40.40;;;;;;5071581;28;20055;-77
2022/06/13 14:35:52;;;;;;;1.38;0.38;;;23.90;40.70;;;;;;5034584;28;20097;-84
2022/06/13 14:38:37;;;;;;;2.92;0.30;;;23.90;40.90;;;;;;5038889;28;20506;-82
2022/06/13 14:41:12;;;;;;;1.50;0.30;;;25.20;39.90;;;;;;5062911;28;20054;-81
2022/06/13 14:44:07;;;;;;;2.00;0.30;;;26.50;38.70;;;;;;5054454;28;20048;-83
2022/06/13 14:46:59;;;;;;;1.02;0.20;;;26.90;37.50;;;;;;5040138;28;20041;-83
2022/06/13 14:49:41;;;;;;;3.05;0.50;;;25.70;38.40;;;;;;5038829;28;20053;-80
2022/06/13 14:52:21;;;;;;;1.83;0.25;;;24.90;39.30;;;;;;5062978;28;20050;-77
2022/06/13 14:55:06;;;;;;;2.55;0.32;;;25.40;39.30;;;;;;5048674;28;20044;-82
2022/06/13 14:57:37;;;;;;;2.90;0.35;;;26.50;38.20;;;;;;5060416;28;20389;-81
2022/06/13 15:00:16;;;;;;;1.42;0.20;;;27.20;37.50;;;;;;5060200;28;20036;-80
2022/06/13 15:02:56;;;;;;;3.67;0.45;;;28.00;36.90;;;;;;5054329;28;20115;-81